sensor_id;sensor_type;location;lat;lon;timestamp;P1;durP1;ratioP1;P2;durP2;ratioP2
6420;SDS011;3243;50.958;7.012;2023-09-19T00:00:20;3.70;;;1.83;;
6420;SDS011;3243;50.958;7.012;2023-09-19T00:02:57;8.57;;;2.37;;
6420;SDS011;3243;50.958;7.012;2023-09-19T00:05:28;4.80;;;2.20;;
6420;SDS011;3243;50.958;7.012;2023-09-19T00:07:56;5.17;;;2.43;;
6420;SDS011;3243;50.958;7.012;2023-09-19T00:10:27;7.50;;;2.70;;
6420;SDS011;3243;50.958;7.012;2023-09-19T00:12:58;6.80;;;2.50;;
6420;SDS011;3243;50.958;7.012;2023-09-19T00:15:26;3.63;;;2.07;;
6420;SDS011;3243;50.958;7.012;2023-09-19T00:17:56;4.23;;;2.40;;
6420;SDS011;3243;50.958;7.012;2023-09-19T00:20:23;5.80;;;2.17;;
6420;SDS011;3243;50.958;7.012;2023-09-19T00:22:50;6.07;;;2.07;;
6420;SDS011;3243;50.958;7.012;2023-09-19T00:25:20;8.23;;;2.00;;
6420;SDS011;3243;50.958;7.012;2023-09-19T00:27:47;7.90;;;2.10;;
6420;SDS011;3243;50.958;7.012;2023-09-19T00:30:17;4.73;;;2.30;;
6420;SDS011;3243;50.958;7.012;2023-09-19T00:32:48;6.07;;;2.20;;
6420;SDS011;3243;50.958;7.012;2023-09-19T00:35:15;6.13;;;2.53;;
6420;SDS011;3243;50.958;7.012;2023-09-19T00:37:42;4.17;;;2.00;;
6420;SDS011;3243;50.958;7.012;2023-09-19T00:40:09;7.53;;;2.77;;
6420;SDS011;3243;50.958;7.012;2023-09-19T00:42:39;4.43;;;2.30;;
6420;SDS011;3243;50.958;7.012;2023-09-19T00:45:10;6.63;;;2.97;;
6420;SDS011;3243;50.958;7.012;2023-09-19T00:47:42;7.93;;;3.70;;
6420;SDS011;3243;50.958;7.012;2023-09-19T00:50:13;5.43;;;2.70;;
6420;SDS011;3243;50.958;7.012;2023-09-19T00:52:43;4.63;;;2.30;;
6420;SDS011;3243;50.958;7.012;2023-09-19T00:55:12;8.60;;;2.50;;
6420;SDS011;3243;50.958;7.012;2023-09-19T00:57:42;5.37;;;2.40;;
6420;SDS011;3243;50.958;7.012;2023-09-19T01:00:11;6.60;;;2.23;;
6420;SDS011;3243;50.958;7.012;2023-09-19T01:02:42;6.00;;;2.43;;
6420;SDS011;3243;50.958;7.012;2023-09-19T01:05:10;5.23;;;2.20;;
6420;SDS011;3243;50.958;7.012;2023-09-19T01:07:38;5.67;;;2.23;;
6420;SDS011;3243;50.958;7.012;2023-09-19T01:10:09;4.77;;;2.10;;
6420;SDS011;3243;50.958;7.012;2023-09-19T01:15:44;3.60;;;2.00;;
6420;SDS011;3243;50.958;7.012;2023-09-19T01:18:26;5.73;;;2.00;;
6420;SDS011;3243;50.958;7.012;2023-09-19T01:24:34;6.40;;;1.87;;
6420;SDS011;3243;50.958;7.012;2023-09-19T01:30:17;4.50;;;2.20;;
6420;SDS011;3243;50.958;7.012;2023-09-19T01:32:51;4.87;;;2.00;;
6420;SDS011;3243;50.958;7.012;2023-09-19T01:35:19;6.77;;;2.10;;
6420;SDS011;3243;50.958;7.012;2023-09-19T01:37:45;5.50;;;2.00;;
6420;SDS011;3243;50.958;7.012;2023-09-19T01:40:12;7.67;;;2.50;;
6420;SDS011;3243;50.958;7.012;2023-09-19T01:51:14;6.07;;;2.30;;
6420;SDS011;3243;50.958;7.012;2023-09-19T01:53:57;8.93;;;2.10;;
6420;SDS011;3243;50.958;7.012;2023-09-19T01:56:31;6.20;;;2.37;;
6420;SDS011;3243;50.958;7.012;2023-09-19T01:59:07;5.63;;;2.33;;
6420;SDS011;3243;50.958;7.012;2023-09-19T02:01:38;9.73;;;2.50;;
6420;SDS011;3243;50.958;7.012;2023-09-19T02:04:07;9.60;;;3.17;;
6420;SDS011;3243;50.958;7.012;2023-09-19T02:06:34;4.80;;;2.30;;
6420;SDS011;3243;50.958;7.012;2023-09-19T02:09:00;5.80;;;2.30;;
6420;SDS011;3243;50.958;7.012;2023-09-19T02:11:28;9.17;;;2.77;;
6420;SDS011;3243;50.958;7.012;2023-09-19T02:13:55;6.77;;;2.40;;
6420;SDS011;3243;50.958;7.012;2023-09-19T02:16:22;8.13;;;2.23;;
6420;SDS011;3243;50.958;7.012;2023-09-19T02:18:49;6.83;;;2.47;;
6420;SDS011;3243;50.958;7.012;2023-09-19T02:21:17;6.77;;;2.57;;
6420;SDS011;3243;50.958;7.012;2023-09-19T02:23:45;9.53;;;2.63;;
6420;SDS011;3243;50.958;7.012;2023-09-19T02:26:13;8.07;;;2.20;;
6420;SDS011;3243;50.958;7.012;2023-09-19T02:28:40;8.20;;;2.70;;
6420;SDS011;3243;50.958;7.012;2023-09-19T02:31:08;8.93;;;2.50;;
6420;SDS011;3243;50.958;7.012;2023-09-19T02:33:35;7.07;;;2.23;;
6420;SDS011;3243;50.958;7.012;2023-09-19T02:36:03;8.30;;;3.20;;
6420;SDS011;3243;50.958;7.012;2023-09-19T02:38:31;5.83;;;2.30;;
6420;SDS011;3243;50.958;7.012;2023-09-19T02:40:58;6.93;;;2.40;;
6420;SDS011;3243;50.958;7.012;2023-09-19T02:43:25;6.37;;;2.23;;
6420;SDS011;3243;50.958;7.012;2023-09-19T02:45:53;6.57;;;2.40;;
6420;SDS011;3243;50.958;7.012;2023-09-19T02:48:20;8.37;;;3.23;;
6420;SDS011;3243;50.958;7.012;2023-09-19T02:50:50;9.90;;;2.23;;
6420;SDS011;3243;50.958;7.012;2023-09-19T02:53:18;10.37;;;2.43;;
6420;SDS011;3243;50.958;7.012;2023-09-19T02:55:46;7.57;;;2.57;;
6420;SDS011;3243;50.958;7.012;2023-09-19T02:58:14;10.27;;;2.87;;
6420;SDS011;3243;50.958;7.012;2023-09-19T03:00:42;10.47;;;2.70;;
6420;SDS011;3243;50.958;7.012;2023-09-19T03:03:13;5.63;;;2.20;;
6420;SDS011;3243;50.958;7.012;2023-09-19T03:05:42;9.80;;;2.40;;
6420;SDS011;3243;50.958;7.012;2023-09-19T03:08:16;8.43;;;2.83;;
6420;SDS011;3243;50.958;7.012;2023-09-19T03:10:45;8.17;;;2.40;;
6420;SDS011;3243;50.958;7.012;2023-09-19T03:13:14;7.40;;;2.30;;
6420;SDS011;3243;50.958;7.012;2023-09-19T03:15:42;9.50;;;2.47;;
6420;SDS011;3243;50.958;7.012;2023-09-19T03:18:12;7.33;;;2.30;;
6420;SDS011;3243;50.958;7.012;2023-09-19T03:20:40;11.40;;;2.60;;
6420;SDS011;3243;50.958;7.012;2023-09-19T03:23:06;9.43;;;2.70;;
6420;SDS011;3243;50.958;7.012;2023-09-19T03:25:34;8.83;;;2.67;;
6420;SDS011;3243;50.958;7.012;2023-09-19T03:28:05;7.80;;;3.37;;
6420;SDS011;3243;50.958;7.012;2023-09-19T03:30:32;8.67;;;2.50;;
6420;SDS011;3243;50.958;7.012;2023-09-19T03:33:02;9.37;;;2.30;;
6420;SDS011;3243;50.958;7.012;2023-09-19T03:35:31;9.30;;;2.53;;
6420;SDS011;3243;50.958;7.012;2023-09-19T03:37:58;4.77;;;2.10;;
6420;SDS011;3243;50.958;7.012;2023-09-19T03:40:24;5.43;;;2.33;;
6420;SDS011;3243;50.958;7.012;2023-09-19T03:42:52;8.63;;;2.57;;
6420;SDS011;3243;50.958;7.012;2023-09-19T03:45:18;7.07;;;2.13;;
6420;SDS011;3243;50.958;7.012;2023-09-19T03:47:45;9.33;;;2.90;;
6420;SDS011;3243;50.958;7.012;2023-09-19T03:50:14;8.73;;;2.60;;
6420;SDS011;3243;50.958;7.012;2023-09-19T03:52:44;11.00;;;3.27;;
6420;SDS011;3243;50.958;7.012;2023-09-19T03:55:11;8.10;;;2.67;;
6420;SDS011;3243;50.958;7.012;2023-09-19T03:57:39;7.93;;;2.50;;
6420;SDS011;3243;50.958;7.012;2023-09-19T04:00:06;10.50;;;2.70;;
6420;SDS011;3243;50.958;7.012;2023-09-19T04:02:42;11.20;;;2.97;;
6420;SDS011;3243;50.958;7.012;2023-09-19T04:05:09;7.57;;;2.70;;
6420;SDS011;3243;50.958;7.012;2023-09-19T04:07:36;10.37;;;2.80;;
6420;SDS011;3243;50.958;7.012;2023-09-19T04:10:03;8.13;;;2.83;;
6420;SDS011;3243;50.958;7.012;2023-09-19T04:12:30;6.90;;;2.47;;
6420;SDS011;3243;50.958;7.012;2023-09-19T04:14:58;9.10;;;2.67;;
6420;SDS011;3243;50.958;7.012;2023-09-19T04:17:25;9.33;;;2.87;;
6420;SDS011;3243;50.958;7.012;2023-09-19T04:19:52;5.97;;;2.60;;
6420;SDS011;3243;50.958;7.012;2023-09-19T04:22:19;9.27;;;2.60;;
6420;SDS011;3243;50.958;7.012;2023-09-19T04:24:47;7.60;;;2.63;;
6420;SDS011;3243;50.958;7.012;2023-09-19T04:27:13;7.03;;;2.33;;
6420;SDS011;3243;50.958;7.012;2023-09-19T04:29:41;8.20;;;2.40;;
6420;SDS011;3243;50.958;7.012;2023-09-19T04:32:08;9.97;;;2.63;;
6420;SDS011;3243;50.958;7.012;2023-09-19T04:34:36;6.87;;;2.33;;
6420;SDS011;3243;50.958;7.012;2023-09-19T04:37:04;10.73;;;2.67;;
6420;SDS011;3243;50.958;7.012;2023-09-19T04:39:32;9.60;;;2.87;;
6420;SDS011;3243;50.958;7.012;2023-09-19T04:42:00;9.97;;;3.30;;
6420;SDS011;3243;50.958;7.012;2023-09-19T04:44:27;8.83;;;2.80;;
6420;SDS011;3243;50.958;7.012;2023-09-19T04:46:54;9.27;;;2.90;;
6420;SDS011;3243;50.958;7.012;2023-09-19T04:49:21;8.77;;;2.60;;
6420;SDS011;3243;50.958;7.012;2023-09-19T04:51:48;10.60;;;2.90;;
6420;SDS011;3243;50.958;7.012;2023-09-19T04:54:15;6.77;;;2.30;;
6420;SDS011;3243;50.958;7.012;2023-09-19T04:56:44;9.47;;;2.60;;
6420;SDS011;3243;50.958;7.012;2023-09-19T04:59:11;9.50;;;2.77;;
6420;SDS011;3243;50.958;7.012;2023-09-19T05:01:38;7.43;;;2.60;;
6420;SDS011;3243;50.958;7.012;2023-09-19T05:04:05;6.73;;;2.73;;
6420;SDS011;3243;50.958;7.012;2023-09-19T05:06:32;9.67;;;2.80;;
6420;SDS011;3243;50.958;7.012;2023-09-19T05:09:02;12.23;;;3.23;;
6420;SDS011;3243;50.958;7.012;2023-09-19T05:11:31;7.23;;;2.80;;
6420;SDS011;3243;50.958;7.012;2023-09-19T05:13:59;9.27;;;2.30;;
6420;SDS011;3243;50.958;7.012;2023-09-19T05:16:30;15.77;;;2.73;;
6420;SDS011;3243;50.958;7.012;2023-09-19T05:19:00;9.47;;;2.63;;
6420;SDS011;3243;50.958;7.012;2023-09-19T05:21:28;6.87;;;2.70;;
6420;SDS011;3243;50.958;7.012;2023-09-19T05:23:56;11.90;;;3.20;;
6420;SDS011;3243;50.958;7.012;2023-09-19T05:26:23;7.20;;;2.63;;
6420;SDS011;3243;50.958;7.012;2023-09-19T05:28:50;7.03;;;2.40;;
6420;SDS011;3243;50.958;7.012;2023-09-19T05:31:18;8.47;;;2.70;;
6420;SDS011;3243;50.958;7.012;2023-09-19T05:33:45;6.60;;;2.67;;
6420;SDS011;3243;50.958;7.012;2023-09-19T05:36:11;7.10;;;3.03;;
6420;SDS011;3243;50.958;7.012;2023-09-19T05:38:38;11.10;;;3.47;;
6420;SDS011;3243;50.958;7.012;2023-09-19T05:41:07;9.50;;;3.03;;
6420;SDS011;3243;50.958;7.012;2023-09-19T05:43:36;8.40;;;2.80;;
6420;SDS011;3243;50.958;7.012;2023-09-19T05:46:04;6.30;;;2.67;;
6420;SDS011;3243;50.958;7.012;2023-09-19T05:48:31;8.43;;;2.70;;
6420;SDS011;3243;50.958;7.012;2023-09-19T05:50:57;8.37;;;2.77;;
6420;SDS011;3243;50.958;7.012;2023-09-19T05:53:25;10.43;;;3.20;;
6420;SDS011;3243;50.958;7.012;2023-09-19T05:55:51;10.33;;;2.80;;
6420;SDS011;3243;50.958;7.012;2023-09-19T05:58:20;7.43;;;2.83;;
6420;SDS011;3243;50.958;7.012;2023-09-19T06:00:46;9.80;;;2.90;;
6420;SDS011;3243;50.958;7.012;2023-09-19T06:03:15;7.10;;;2.60;;
6420;SDS011;3243;50.958;7.012;2023-09-19T06:05:43;8.17;;;2.67;;
6420;SDS011;3243;50.958;7.012;2023-09-19T06:08:12;9.17;;;2.77;;
6420;SDS011;3243;50.958;7.012;2023-09-19T06:10:39;11.23;;;3.10;;
6420;SDS011;3243;50.958;7.012;2023-09-19T06:13:06;11.20;;;3.07;;
6420;SDS011;3243;50.958;7.012;2023-09-19T06:15:36;5.83;;;2.53;;
6420;SDS011;3243;50.958;7.012;2023-09-19T06:18:03;8.03;;;2.90;;
6420;SDS011;3243;50.958;7.012;2023-09-19T06:20:31;6.77;;;2.53;;
6420;SDS011;3243;50.958;7.012;2023-09-19T06:22:59;9.43;;;2.77;;
6420;SDS011;3243;50.958;7.012;2023-09-19T06:25:28;8.27;;;3.00;;
6420;SDS011;3243;50.958;7.012;2023-09-19T06:27:55;11.27;;;2.90;;
6420;SDS011;3243;50.958;7.012;2023-09-19T06:30:23;8.90;;;2.70;;
6420;SDS011;3243;50.958;7.012;2023-09-19T06:32:58;8.23;;;3.27;;
6420;SDS011;3243;50.958;7.012;2023-09-19T06:35:26;8.10;;;2.70;;
6420;SDS011;3243;50.958;7.012;2023-09-19T06:37:55;8.57;;;3.17;;
6420;SDS011;3243;50.958;7.012;2023-09-19T06:40:24;10.60;;;2.97;;
6420;SDS011;3243;50.958;7.012;2023-09-19T06:42:52;7.97;;;2.57;;
6420;SDS011;3243;50.958;7.012;2023-09-19T06:45:20;11.60;;;3.47;;
6420;SDS011;3243;50.958;7.012;2023-09-19T06:47:49;7.90;;;2.63;;
6420;SDS011;3243;50.958;7.012;2023-09-19T06:50:18;9.03;;;2.73;;
6420;SDS011;3243;50.958;7.012;2023-09-19T06:52:50;8.30;;;2.80;;
6420;SDS011;3243;50.958;7.012;2023-09-19T06:55:18;8.00;;;2.63;;
6420;SDS011;3243;50.958;7.012;2023-09-19T06:57:47;7.77;;;2.30;;
6420;SDS011;3243;50.958;7.012;2023-09-19T07:00:14;13.00;;;3.20;;
6420;SDS011;3243;50.958;7.012;2023-09-19T07:02:45;11.13;;;2.90;;
6420;SDS011;3243;50.958;7.012;2023-09-19T07:05:12;9.30;;;2.73;;
6420;SDS011;3243;50.958;7.012;2023-09-19T07:07:38;8.53;;;2.40;;
6420;SDS011;3243;50.958;7.012;2023-09-19T07:10:06;7.83;;;3.17;;
6420;SDS011;3243;50.958;7.012;2023-09-19T07:12:36;9.43;;;2.60;;
6420;SDS011;3243;50.958;7.012;2023-09-19T07:15:03;8.47;;;2.90;;
6420;SDS011;3243;50.958;7.012;2023-09-19T07:17:32;9.27;;;3.13;;
6420;SDS011;3243;50.958;7.012;2023-09-19T07:19:59;9.27;;;2.80;;
6420;SDS011;3243;50.958;7.012;2023-09-19T07:22:26;6.53;;;2.80;;
6420;SDS011;3243;50.958;7.012;2023-09-19T07:24:53;11.93;;;3.70;;
6420;SDS011;3243;50.958;7.012;2023-09-19T07:27:21;11.60;;;2.67;;
6420;SDS011;3243;50.958;7.012;2023-09-19T07:29:48;9.97;;;3.03;;
6420;SDS011;3243;50.958;7.012;2023-09-19T07:32:19;7.77;;;3.43;;
6420;SDS011;3243;50.958;7.012;2023-09-19T07:34:47;8.20;;;2.57;;
6420;SDS011;3243;50.958;7.012;2023-09-19T07:37:14;8.73;;;2.50;;
6420;SDS011;3243;50.958;7.012;2023-09-19T07:39:42;9.73;;;2.90;;
6420;SDS011;3243;50.958;7.012;2023-09-19T07:42:09;12.57;;;2.87;;
6420;SDS011;3243;50.958;7.012;2023-09-19T07:44:37;8.43;;;2.40;;
6420;SDS011;3243;50.958;7.012;2023-09-19T07:47:04;10.53;;;3.47;;
6420;SDS011;3243;50.958;7.012;2023-09-19T07:49:31;7.27;;;2.70;;
6420;SDS011;3243;50.958;7.012;2023-09-19T07:51:58;9.17;;;3.07;;
6420;SDS011;3243;50.958;7.012;2023-09-19T07:54:25;10.17;;;2.60;;
6420;SDS011;3243;50.958;7.012;2023-09-19T07:56:56;9.57;;;2.50;;
6420;SDS011;3243;50.958;7.012;2023-09-19T07:59:24;9.53;;;2.80;;
6420;SDS011;3243;50.958;7.012;2023-09-19T08:01:51;7.67;;;2.50;;
6420;SDS011;3243;50.958;7.012;2023-09-19T08:04:18;7.60;;;2.53;;
6420;SDS011;3243;50.958;7.012;2023-09-19T08:06:45;8.60;;;3.07;;
6420;SDS011;3243;50.958;7.012;2023-09-19T08:09:12;7.73;;;2.57;;
6420;SDS011;3243;50.958;7.012;2023-09-19T08:11:51;7.20;;;2.67;;
6420;SDS011;3243;50.958;7.012;2023-09-19T08:14:17;7.53;;;2.60;;
6420;SDS011;3243;50.958;7.012;2023-09-19T08:16:44;9.07;;;2.70;;
6420;SDS011;3243;50.958;7.012;2023-09-19T08:19:11;7.63;;;2.90;;
6420;SDS011;3243;50.958;7.012;2023-09-19T08:21:38;6.77;;;2.73;;
6420;SDS011;3243;50.958;7.012;2023-09-19T08:24:05;9.30;;;2.70;;
6420;SDS011;3243;50.958;7.012;2023-09-19T08:26:32;6.90;;;2.70;;
6420;SDS011;3243;50.958;7.012;2023-09-19T08:28:59;7.75;;;2.83;;
6420;SDS011;3243;50.958;7.012;2023-09-19T08:31:32;11.00;;;2.87;;
6420;SDS011;3243;50.958;7.012;2023-09-19T08:34:00;8.83;;;3.43;;
6420;SDS011;3243;50.958;7.012;2023-09-19T08:36:27;8.87;;;2.87;;
6420;SDS011;3243;50.958;7.012;2023-09-19T08:38:54;7.27;;;3.03;;
6420;SDS011;3243;50.958;7.012;2023-09-19T08:41:22;10.00;;;2.57;;
6420;SDS011;3243;50.958;7.012;2023-09-19T08:43:49;5.87;;;2.50;;
6420;SDS011;3243;50.958;7.012;2023-09-19T08:46:20;9.13;;;3.00;;
6420;SDS011;3243;50.958;7.012;2023-09-19T08:49:07;8.33;;;2.63;;
6420;SDS011;3243;50.958;7.012;2023-09-19T08:51:43;12.40;;;2.87;;
6420;SDS011;3243;50.958;7.012;2023-09-19T08:54:19;9.85;;;2.65;;
6420;SDS011;3243;50.958;7.012;2023-09-19T08:56:53;7.75;;;2.50;;
6420;SDS011;3243;50.958;7.012;2023-09-19T08:59:23;4.85;;;2.10;;
6420;SDS011;3243;50.958;7.012;2023-09-19T09:01:50;9.20;;;2.63;;
6420;SDS011;3243;50.958;7.012;2023-09-19T09:04:20;7.28;;;2.75;;
6420;SDS011;3243;50.958;7.012;2023-09-19T09:06:49;10.00;;;3.40;;
6420;SDS011;3243;50.958;7.012;2023-09-19T09:09:20;5.85;;;2.33;;
6420;SDS011;3243;50.958;7.012;2023-09-19T09:11:48;9.95;;;2.95;;
6420;SDS011;3243;50.958;7.012;2023-09-19T09:14:20;7.43;;;2.63;;
6420;SDS011;3243;50.958;7.012;2023-09-19T09:16:47;7.35;;;2.67;;
6420;SDS011;3243;50.958;7.012;2023-09-19T09:19:15;6.93;;;2.50;;
6420;SDS011;3243;50.958;7.012;2023-09-19T09:21:51;7.00;;;3.10;;
6420;SDS011;3243;50.958;7.012;2023-09-19T09:26:55;8.60;;;2.63;;
6420;SDS011;3243;50.958;7.012;2023-09-19T09:32:17;7.55;;;2.75;;
6420;SDS011;3243;50.958;7.012;2023-09-19T09:34:51;5.15;;;2.25;;
6420;SDS011;3243;50.958;7.012;2023-09-19T09:37:27;7.05;;;2.80;;
6420;SDS011;3243;50.958;7.012;2023-09-19T09:40:00;6.80;;;2.85;;
6420;SDS011;3243;50.958;7.012;2023-09-19T09:42:40;5.63;;;2.40;;
6420;SDS011;3243;50.958;7.012;2023-09-19T09:45:20;7.20;;;2.33;;
6420;SDS011;3243;50.958;7.012;2023-09-19T09:48:08;6.75;;;2.92;;
6420;SDS011;3243;50.958;7.012;2023-09-19T09:50:50;6.90;;;4.15;;
6420;SDS011;3243;50.958;7.012;2023-09-19T09:53:26;11.25;;;4.55;;
6420;SDS011;3243;50.958;7.012;2023-09-19T09:56:05;4.20;;;2.57;;
6420;SDS011;3243;50.958;7.012;2023-09-19T09:58:34;5.03;;;2.28;;
6420;SDS011;3243;50.958;7.012;2023-09-19T10:01:20;6.50;;;2.20;;
6420;SDS011;3243;50.958;7.012;2023-09-19T10:03:47;4.32;;;2.30;;
6420;SDS011;3243;50.958;7.012;2023-09-19T10:06:15;6.38;;;2.47;;
6420;SDS011;3243;50.958;7.012;2023-09-19T10:11:47;6.53;;;2.30;;
6420;SDS011;3243;50.958;7.012;2023-09-19T10:14:24;6.95;;;2.50;;
6420;SDS011;3243;50.958;7.012;2023-09-19T10:16:58;3.90;;;2.10;;
6420;SDS011;3243;50.958;7.012;2023-09-19T10:19:33;7.20;;;2.70;;
6420;SDS011;3243;50.958;7.012;2023-09-19T10:22:04;7.80;;;2.75;;
6420;SDS011;3243;50.958;7.012;2023-09-19T10:24:35;7.35;;;2.40;;
6420;SDS011;3243;50.958;7.012;2023-09-19T10:27:17;4.88;;;2.47;;
6420;SDS011;3243;50.958;7.012;2023-09-19T10:29:46;5.68;;;2.05;;
6420;SDS011;3243;50.958;7.012;2023-09-19T10:32:20;3.45;;;2.10;;
6420;SDS011;3243;50.958;7.012;2023-09-19T10:34:50;5.78;;;2.30;;
6420;SDS011;3243;50.958;7.012;2023-09-19T10:37:21;6.43;;;1.83;;
6420;SDS011;3243;50.958;7.012;2023-09-19T10:39:52;5.75;;;2.20;;
6420;SDS011;3243;50.958;7.012;2023-09-19T10:42:22;6.47;;;2.20;;
6420;SDS011;3243;50.958;7.012;2023-09-19T10:44:54;6.18;;;2.15;;
6420;SDS011;3243;50.958;7.012;2023-09-19T10:47:26;6.07;;;2.03;;
6420;SDS011;3243;50.958;7.012;2023-09-19T10:49:53;5.38;;;2.08;;
6420;SDS011;3243;50.958;7.012;2023-09-19T10:52:22;6.28;;;2.20;;
6420;SDS011;3243;50.958;7.012;2023-09-19T10:54:52;5.82;;;2.20;;
6420;SDS011;3243;50.958;7.012;2023-09-19T10:57:24;8.88;;;2.58;;
6420;SDS011;3243;50.958;7.012;2023-09-19T11:00:06;4.85;;;1.95;;
6420;SDS011;3243;50.958;7.012;2023-09-19T11:05:39;5.85;;;2.70;;
6420;SDS011;3243;50.958;7.012;2023-09-19T11:08:07;6.00;;;2.60;;
6420;SDS011;3243;50.958;7.012;2023-09-19T11:10:47;5.65;;;2.30;;
6420;SDS011;3243;50.958;7.012;2023-09-19T11:13:33;7.55;;;2.67;;
6420;SDS011;3243;50.958;7.012;2023-09-19T11:16:04;7.63;;;2.60;;
6420;SDS011;3243;50.958;7.012;2023-09-19T11:26:48;5.28;;;2.40;;
6420;SDS011;3243;50.958;7.012;2023-09-19T11:29:25;4.57;;;2.20;;
6420;SDS011;3243;50.958;7.012;2023-09-19T11:31:53;4.43;;;2.13;;
6420;SDS011;3243;50.958;7.012;2023-09-19T11:39:38;4.88;;;2.33;;
6420;SDS011;3243;50.958;7.012;2023-09-19T11:48:15;5.15;;;2.40;;
6420;SDS011;3243;50.958;7.012;2023-09-19T11:50:44;6.10;;;2.72;;
6420;SDS011;3243;50.958;7.012;2023-09-19T11:53:13;6.18;;;2.75;;
6420;SDS011;3243;50.958;7.012;2023-09-19T11:55:42;5.85;;;2.60;;
6420;SDS011;3243;50.958;7.012;2023-09-19T11:58:10;5.88;;;2.03;;
6420;SDS011;3243;50.958;7.012;2023-09-19T12:00:40;6.07;;;2.47;;
6420;SDS011;3243;50.958;7.012;2023-09-19T12:03:11;4.50;;;2.08;;
6420;SDS011;3243;50.958;7.012;2023-09-19T12:05:40;6.60;;;2.40;;
6420;SDS011;3243;50.958;7.012;2023-09-19T12:08:08;6.15;;;2.30;;
6420;SDS011;3243;50.958;7.012;2023-09-19T12:10:47;5.90;;;2.60;;
6420;SDS011;3243;50.958;7.012;2023-09-19T12:13:16;3.83;;;2.00;;
6420;SDS011;3243;50.958;7.012;2023-09-19T12:15:44;6.25;;;2.30;;
6420;SDS011;3243;50.958;7.012;2023-09-19T12:18:26;5.65;;;2.17;;
6420;SDS011;3243;50.958;7.012;2023-09-19T12:20:57;4.68;;;2.25;;
6420;SDS011;3243;50.958;7.012;2023-09-19T12:23:24;4.05;;;2.08;;
6420;SDS011;3243;50.958;7.012;2023-09-19T12:25:54;5.40;;;2.50;;
6420;SDS011;3243;50.958;7.012;2023-09-19T12:28:27;5.00;;;2.28;;
6420;SDS011;3243;50.958;7.012;2023-09-19T12:31:05;5.32;;;2.40;;
6420;SDS011;3243;50.958;7.012;2023-09-19T12:33:33;3.90;;;2.08;;
6420;SDS011;3243;50.958;7.012;2023-09-19T12:36:18;5.88;;;2.30;;
6420;SDS011;3243;50.958;7.012;2023-09-19T12:38:55;7.38;;;2.38;;
6420;SDS011;3243;50.958;7.012;2023-09-19T12:41:28;5.40;;;2.40;;
6420;SDS011;3243;50.958;7.012;2023-09-19T12:43:55;5.15;;;2.35;;
6420;SDS011;3243;50.958;7.012;2023-09-19T12:46:23;5.55;;;2.67;;
6420;SDS011;3243;50.958;7.012;2023-09-19T12:51:43;8.55;;;2.20;;
6420;SDS011;3243;50.958;7.012;2023-09-19T12:54:11;4.07;;;2.42;;
6420;SDS011;3243;50.958;7.012;2023-09-19T12:56:41;3.25;;;1.92;;
6420;SDS011;3243;50.958;7.012;2023-09-19T12:59:14;5.60;;;2.10;;
6420;SDS011;3243;50.958;7.012;2023-09-19T13:01:42;4.57;;;2.20;;
6420;SDS011;3243;50.958;7.012;2023-09-19T13:04:20;5.38;;;2.58;;
6420;SDS011;3243;50.958;7.012;2023-09-19T13:06:55;5.70;;;1.95;;
6420;SDS011;3243;50.958;7.012;2023-09-19T13:09:27;4.50;;;2.10;;
6420;SDS011;3243;50.958;7.012;2023-09-19T13:12:30;3.92;;;2.03;;
6420;SDS011;3243;50.958;7.012;2023-09-19T13:15:12;6.15;;;2.10;;
6420;SDS011;3243;50.958;7.012;2023-09-19T13:17:46;8.55;;;3.33;;
6420;SDS011;3243;50.958;7.012;2023-09-19T13:20:22;7.32;;;2.08;;
6420;SDS011;3243;50.958;7.012;2023-09-19T13:22:58;4.85;;;2.10;;
6420;SDS011;3243;50.958;7.012;2023-09-19T13:25:37;6.07;;;1.92;;
6420;SDS011;3243;50.958;7.012;2023-09-19T13:28:06;5.38;;;1.90;;
6420;SDS011;3243;50.958;7.012;2023-09-19T13:30:33;3.45;;;1.98;;
6420;SDS011;3243;50.958;7.012;2023-09-19T13:33:09;4.68;;;2.25;;
6420;SDS011;3243;50.958;7.012;2023-09-19T13:35:38;4.82;;;1.75;;
6420;SDS011;3243;50.958;7.012;2023-09-19T13:38:07;4.50;;;1.90;;
6420;SDS011;3243;50.958;7.012;2023-09-19T13:40:38;3.42;;;1.88;;
6420;SDS011;3243;50.958;7.012;2023-09-19T13:43:05;7.68;;;2.40;;
6420;SDS011;3243;50.958;7.012;2023-09-19T13:45:33;3.05;;;1.80;;
6420;SDS011;3243;50.958;7.012;2023-09-19T13:48:00;6.40;;;1.80;;
6420;SDS011;3243;50.958;7.012;2023-09-19T13:50:27;4.95;;;2.10;;
6420;SDS011;3243;50.958;7.012;2023-09-19T13:52:55;7.10;;;2.33;;
6420;SDS011;3243;50.958;7.012;2023-09-19T13:55:24;5.88;;;2.13;;
6420;SDS011;3243;50.958;7.012;2023-09-19T13:57:51;3.55;;;2.00;;
6420;SDS011;3243;50.958;7.012;2023-09-19T14:00:22;3.28;;;1.63;;
6420;SDS011;3243;50.958;7.012;2023-09-19T14:02:49;3.83;;;1.60;;
6420;SDS011;3243;50.958;7.012;2023-09-19T14:05:18;4.05;;;1.77;;
6420;SDS011;3243;50.958;7.012;2023-09-19T14:07:47;4.75;;;2.25;;
6420;SDS011;3243;50.958;7.012;2023-09-19T14:10:14;5.15;;;1.80;;
6420;SDS011;3243;50.958;7.012;2023-09-19T14:12:41;3.78;;;1.77;;
6420;SDS011;3243;50.958;7.012;2023-09-19T14:15:11;4.60;;;1.98;;
6420;SDS011;3243;50.958;7.012;2023-09-19T14:17:38;2.42;;;1.60;;
6420;SDS011;3243;50.958;7.012;2023-09-19T14:20:08;4.75;;;1.65;;
6420;SDS011;3243;50.958;7.012;2023-09-19T14:22:37;3.38;;;1.85;;
6420;SDS011;3243;50.958;7.012;2023-09-19T14:25:04;5.93;;;1.90;;
6420;SDS011;3243;50.958;7.012;2023-09-19T14:27:31;2.90;;;1.63;;
6420;SDS011;3243;50.958;7.012;2023-09-19T14:29:58;4.32;;;2.10;;
6420;SDS011;3243;50.958;7.012;2023-09-19T14:32:25;2.90;;;1.50;;
6420;SDS011;3243;50.958;7.012;2023-09-19T14:34:52;3.65;;;1.50;;
6420;SDS011;3243;50.958;7.012;2023-09-19T14:37:19;4.30;;;1.90;;
6420;SDS011;3243;50.958;7.012;2023-09-19T14:39:49;3.90;;;1.90;;
6420;SDS011;3243;50.958;7.012;2023-09-19T14:42:16;5.20;;;2.72;;
6420;SDS011;3243;50.958;7.012;2023-09-19T14:44:44;4.65;;;1.80;;
6420;SDS011;3243;50.958;7.012;2023-09-19T14:47:11;5.55;;;2.17;;
6420;SDS011;3243;50.958;7.012;2023-09-19T14:49:40;4.50;;;1.80;;
6420;SDS011;3243;50.958;7.012;2023-09-19T14:52:08;3.58;;;1.90;;
6420;SDS011;3243;50.958;7.012;2023-09-19T14:54:36;5.28;;;1.60;;
6420;SDS011;3243;50.958;7.012;2023-09-19T14:57:04;3.08;;;1.40;;
6420;SDS011;3243;50.958;7.012;2023-09-19T14:59:31;3.70;;;2.03;;
6420;SDS011;3243;50.958;7.012;2023-09-19T15:01:58;4.75;;;2.08;;
6420;SDS011;3243;50.958;7.012;2023-09-19T15:04:26;5.30;;;2.55;;
6420;SDS011;3243;50.958;7.012;2023-09-19T15:06:54;7.35;;;2.58;;
6420;SDS011;3243;50.958;7.012;2023-09-19T15:09:21;4.47;;;1.95;;
6420;SDS011;3243;50.958;7.012;2023-09-19T15:11:52;4.60;;;1.83;;
6420;SDS011;3243;50.958;7.012;2023-09-19T15:14:20;4.93;;;1.90;;
6420;SDS011;3243;50.958;7.012;2023-09-19T15:16:47;3.42;;;1.70;;
6420;SDS011;3243;50.958;7.012;2023-09-19T15:19:15;3.88;;;1.92;;
6420;SDS011;3243;50.958;7.012;2023-09-19T15:21:43;4.18;;;1.80;;
6420;SDS011;3243;50.958;7.012;2023-09-19T15:24:11;2.63;;;1.50;;
6420;SDS011;3243;50.958;7.012;2023-09-19T15:26:38;3.42;;;1.73;;
6420;SDS011;3243;50.958;7.012;2023-09-19T15:29:08;2.15;;;1.40;;
6420;SDS011;3243;50.958;7.012;2023-09-19T15:31:36;3.78;;;1.83;;
6420;SDS011;3243;50.958;7.012;2023-09-19T15:34:04;3.88;;;2.00;;
6420;SDS011;3243;50.958;7.012;2023-09-19T15:36:33;5.60;;;1.77;;
6420;SDS011;3243;50.958;7.012;2023-09-19T15:39:01;3.88;;;2.05;;
6420;SDS011;3243;50.958;7.012;2023-09-19T15:41:38;4.55;;;1.75;;
6420;SDS011;3243;50.958;7.012;2023-09-19T15:44:12;3.35;;;1.90;;
6420;SDS011;3243;50.958;7.012;2023-09-19T15:46:41;4.10;;;1.90;;
6420;SDS011;3243;50.958;7.012;2023-09-19T15:49:09;3.10;;;1.83;;
6420;SDS011;3243;50.958;7.012;2023-09-19T15:51:36;3.70;;;1.60;;
6420;SDS011;3243;50.958;7.012;2023-09-19T15:54:07;3.88;;;1.58;;
6420;SDS011;3243;50.958;7.012;2023-09-19T15:56:37;4.28;;;1.58;;
6420;SDS011;3243;50.958;7.012;2023-09-19T15:59:04;5.32;;;1.75;;
6420;SDS011;3243;50.958;7.012;2023-09-19T16:01:31;2.83;;;1.70;;
6420;SDS011;3243;50.958;7.012;2023-09-19T16:03:58;3.00;;;1.73;;
6420;SDS011;3243;50.958;7.012;2023-09-19T16:06:25;2.85;;;1.58;;
6420;SDS011;3243;50.958;7.012;2023-09-19T16:08:57;3.28;;;1.60;;
6420;SDS011;3243;50.958;7.012;2023-09-19T16:11:26;4.30;;;1.60;;
6420;SDS011;3243;50.958;7.012;2023-09-19T16:13:54;5.03;;;1.50;;
6420;SDS011;3243;50.958;7.012;2023-09-19T16:16:22;3.22;;;1.67;;
6420;SDS011;3243;50.958;7.012;2023-09-19T16:18:50;2.83;;;1.80;;
6420;SDS011;3243;50.958;7.012;2023-09-19T16:21:24;3.50;;;1.90;;